sensor_id;sensor_type;location;lat;lon;timestamp;P1;durP1;ratioP1;P2;durP2;ratioP2
17199;SDS011;8716;52.268;20.968;2022-08-25T00:01:51;5.63;;;3.77;;
17199;SDS011;8716;52.268;20.968;2022-08-25T00:04:22;4.13;;;2.80;;
17199;SDS011;8716;52.268;20.968;2022-08-25T00:06:51;3.47;;;3.27;;
17199;SDS011;8716;52.268;20.968;2022-08-25T00:09:28;4.57;;;3.47;;
17199;SDS011;8716;52.268;20.968;2022-08-25T00:11:57;2.63;;;2.43;;
17199;SDS011;8716;52.268;20.968;2022-08-25T00:14:27;5.07;;;4.57;;
17199;SDS011;8716;52.268;20.968;2022-08-25T00:16:58;2.50;;;2.33;;
17199;SDS011;8716;52.268;20.968;2022-08-25T00:19:27;3.23;;;3.03;;
17199;SDS011;8716;52.268;20.968;2022-08-25T00:21:58;5.20;;;3.30;;
17199;SDS011;8716;52.268;20.968;2022-08-25T00:24:27;3.00;;;2.83;;
17199;SDS011;8716;52.268;20.968;2022-08-25T00:26:56;6.07;;;3.37;;
17199;SDS011;8716;52.268;20.968;2022-08-25T00:29:26;4.00;;;3.80;;
17199;SDS011;8716;52.268;20.968;2022-08-25T00:31:55;4.00;;;3.80;;
17199;SDS011;8716;52.268;20.968;2022-08-25T00:34:26;4.93;;;3.30;;
17199;SDS011;8716;52.268;20.968;2022-08-25T00:36:56;2.50;;;2.30;;
17199;SDS011;8716;52.268;20.968;2022-08-25T00:39:25;3.00;;;2.80;;
17199;SDS011;8716;52.268;20.968;2022-08-25T00:41:54;5.70;;;3.20;;
17199;SDS011;8716;52.268;20.968;2022-08-25T00:44:24;3.17;;;2.93;;
17199;SDS011;8716;52.268;20.968;2022-08-25T00:46:55;4.27;;;4.00;;
17199;SDS011;8716;52.268;20.968;2022-08-25T00:49:28;4.63;;;3.90;;
17199;SDS011;8716;52.268;20.968;2022-08-25T00:51:59;4.87;;;3.73;;
17199;SDS011;8716;52.268;20.968;2022-08-25T00:54:31;6.83;;;4.53;;
17199;SDS011;8716;52.268;20.968;2022-08-25T00:57:04;8.30;;;4.73;;
17199;SDS011;8716;52.268;20.968;2022-08-25T00:59:35;4.63;;;4.37;;
17199;SDS011;8716;52.268;20.968;2022-08-25T01:02:05;3.53;;;3.07;;
17199;SDS011;8716;52.268;20.968;2022-08-25T01:04:41;2.93;;;2.77;;
17199;SDS011;8716;52.268;20.968;2022-08-25T01:07:15;2.97;;;2.77;;
17199;SDS011;8716;52.268;20.968;2022-08-25T01:09:45;7.40;;;3.97;;
17199;SDS011;8716;52.268;20.968;2022-08-25T01:12:16;4.30;;;4.00;;
17199;SDS011;8716;52.268;20.968;2022-08-25T01:14:44;3.23;;;3.03;;
17199;SDS011;8716;52.268;20.968;2022-08-25T01:17:13;3.60;;;3.40;;
17199;SDS011;8716;52.268;20.968;2022-08-25T01:19:42;4.70;;;4.40;;
17199;SDS011;8716;52.268;20.968;2022-08-25T01:22:12;3.13;;;2.97;;
17199;SDS011;8716;52.268;20.968;2022-08-25T01:24:41;6.60;;;4.30;;
17199;SDS011;8716;52.268;20.968;2022-08-25T01:27:13;3.70;;;3.50;;
17199;SDS011;8716;52.268;20.968;2022-08-25T01:29:41;4.03;;;3.83;;
17199;SDS011;8716;52.268;20.968;2022-08-25T01:32:12;3.23;;;3.03;;
17199;SDS011;8716;52.268;20.968;2022-08-25T01:34:41;2.93;;;2.73;;
17199;SDS011;8716;52.268;20.968;2022-08-25T01:37:13;9.43;;;3.50;;
17199;SDS011;8716;52.268;20.968;2022-08-25T01:39:42;3.30;;;3.10;;
17199;SDS011;8716;52.268;20.968;2022-08-25T01:42:18;3.43;;;3.23;;
17199;SDS011;8716;52.268;20.968;2022-08-25T01:44:59;4.43;;;4.13;;
17199;SDS011;8716;52.268;20.968;2022-08-25T01:47:27;7.20;;;4.07;;
17199;SDS011;8716;52.268;20.968;2022-08-25T01:49:57;2.67;;;2.47;;
17199;SDS011;8716;52.268;20.968;2022-08-25T01:52:31;3.80;;;3.60;;
17199;SDS011;8716;52.268;20.968;2022-08-25T01:55:03;2.93;;;2.73;;
17199;SDS011;8716;52.268;20.968;2022-08-25T01:57:32;4.40;;;3.07;;
17199;SDS011;8716;52.268;20.968;2022-08-25T02:00:00;4.17;;;2.50;;
17199;SDS011;8716;52.268;20.968;2022-08-25T02:02:36;3.27;;;3.07;;
17199;SDS011;8716;52.268;20.968;2022-08-25T02:05:08;3.53;;;3.33;;
17199;SDS011;8716;52.268;20.968;2022-08-25T02:07:37;2.80;;;2.60;;
17199;SDS011;8716;52.268;20.968;2022-08-25T02:10:05;3.73;;;3.43;;
17199;SDS011;8716;52.268;20.968;2022-08-25T02:12:34;3.40;;;3.20;;
17199;SDS011;8716;52.268;20.968;2022-08-25T02:15:03;4.37;;;4.00;;
17199;SDS011;8716;52.268;20.968;2022-08-25T02:17:33;3.63;;;3.27;;
17199;SDS011;8716;52.268;20.968;2022-08-25T02:20:02;3.67;;;3.47;;
17199;SDS011;8716;52.268;20.968;2022-08-25T02:22:31;2.67;;;2.10;;
17199;SDS011;8716;52.268;20.968;2022-08-25T02:25:00;5.10;;;3.73;;
17199;SDS011;8716;52.268;20.968;2022-08-25T02:27:28;3.70;;;3.50;;
17199;SDS011;8716;52.268;20.968;2022-08-25T02:29:56;8.90;;;3.87;;
17199;SDS011;8716;52.268;20.968;2022-08-25T02:32:27;3.40;;;3.20;;
17199;SDS011;8716;52.268;20.968;2022-08-25T02:34:55;3.13;;;2.93;;
17199;SDS011;8716;52.268;20.968;2022-08-25T02:37:23;3.67;;;2.80;;
17199;SDS011;8716;52.268;20.968;2022-08-25T02:39:51;3.27;;;3.10;;
17199;SDS011;8716;52.268;20.968;2022-08-25T02:42:21;3.17;;;2.97;;
17199;SDS011;8716;52.268;20.968;2022-08-25T02:44:49;4.57;;;4.30;;
17199;SDS011;8716;52.268;20.968;2022-08-25T02:47:17;3.10;;;2.90;;
17199;SDS011;8716;52.268;20.968;2022-08-25T02:49:52;4.57;;;3.63;;
17199;SDS011;8716;52.268;20.968;2022-08-25T02:52:21;8.90;;;3.63;;
17199;SDS011;8716;52.268;20.968;2022-08-25T02:54:50;6.13;;;3.73;;
17199;SDS011;8716;52.268;20.968;2022-08-25T02:57:18;5.30;;;5.03;;
17199;SDS011;8716;52.268;20.968;2022-08-25T02:59:48;4.43;;;3.00;;
17199;SDS011;8716;52.268;20.968;2022-08-25T03:02:17;5.87;;;5.27;;
17199;SDS011;8716;52.268;20.968;2022-08-25T03:04:45;5.27;;;4.70;;
17199;SDS011;8716;52.268;20.968;2022-08-25T03:07:13;4.07;;;3.87;;
17199;SDS011;8716;52.268;20.968;2022-08-25T03:09:43;8.10;;;4.97;;
17199;SDS011;8716;52.268;20.968;2022-08-25T03:12:12;8.40;;;4.70;;
17199;SDS011;8716;52.268;20.968;2022-08-25T03:14:41;5.37;;;5.10;;
17199;SDS011;8716;52.268;20.968;2022-08-25T03:17:09;9.13;;;4.87;;
17199;SDS011;8716;52.268;20.968;2022-08-25T03:19:38;3.70;;;3.50;;
17199;SDS011;8716;52.268;20.968;2022-08-25T03:22:06;4.63;;;3.40;;
17199;SDS011;8716;52.268;20.968;2022-08-25T03:24:34;3.97;;;3.80;;
17199;SDS011;8716;52.268;20.968;2022-08-25T03:27:02;5.47;;;5.17;;
17199;SDS011;8716;52.268;20.968;2022-08-25T03:29:30;7.93;;;6.57;;
17199;SDS011;8716;52.268;20.968;2022-08-25T03:32:01;5.63;;;4.10;;
17199;SDS011;8716;52.268;20.968;2022-08-25T03:34:30;7.00;;;6.07;;
17199;SDS011;8716;52.268;20.968;2022-08-25T03:36:58;4.90;;;4.60;;
17199;SDS011;8716;52.268;20.968;2022-08-25T03:39:27;5.10;;;4.80;;
17199;SDS011;8716;52.268;20.968;2022-08-25T03:41:55;3.50;;;3.30;;
17199;SDS011;8716;52.268;20.968;2022-08-25T03:44:23;6.47;;;5.27;;
17199;SDS011;8716;52.268;20.968;2022-08-25T03:46:52;6.07;;;5.30;;
17199;SDS011;8716;52.268;20.968;2022-08-25T03:49:22;5.73;;;5.10;;
17199;SDS011;8716;52.268;20.968;2022-08-25T03:51:51;5.83;;;4.37;;
17199;SDS011;8716;52.268;20.968;2022-08-25T03:54:23;5.30;;;4.83;;
17199;SDS011;8716;52.268;20.968;2022-08-25T03:56:52;6.80;;;6.40;;
17199;SDS011;8716;52.268;20.968;2022-08-25T03:59:20;5.13;;;4.77;;
17199;SDS011;8716;52.268;20.968;2022-08-25T04:01:49;5.27;;;4.27;;
17199;SDS011;8716;52.268;20.968;2022-08-25T04:04:22;7.10;;;4.93;;
17199;SDS011;8716;52.268;20.968;2022-08-25T04:06:50;7.83;;;5.37;;
17199;SDS011;8716;52.268;20.968;2022-08-25T04:09:19;5.27;;;4.97;;
17199;SDS011;8716;52.268;20.968;2022-08-25T04:11:47;9.50;;;6.40;;
17199;SDS011;8716;52.268;20.968;2022-08-25T04:14:18;8.10;;;6.13;;
17199;SDS011;8716;52.268;20.968;2022-08-25T04:16:47;12.27;;;4.93;;
17199;SDS011;8716;52.268;20.968;2022-08-25T04:19:16;6.33;;;4.30;;
17199;SDS011;8716;52.268;20.968;2022-08-25T04:21:45;8.77;;;5.57;;
17199;SDS011;8716;52.268;20.968;2022-08-25T04:24:13;6.57;;;5.80;;
17199;SDS011;8716;52.268;20.968;2022-08-25T04:26:43;4.37;;;4.07;;
17199;SDS011;8716;52.268;20.968;2022-08-25T04:29:13;6.87;;;4.47;;
17199;SDS011;8716;52.268;20.968;2022-08-25T04:31:43;5.40;;;5.10;;
17199;SDS011;8716;52.268;20.968;2022-08-25T04:34:14;10.40;;;5.57;;
17199;SDS011;8716;52.268;20.968;2022-08-25T04:36:57;9.33;;;3.90;;
17199;SDS011;8716;52.268;20.968;2022-08-25T04:39:26;4.37;;;4.07;;
17199;SDS011;8716;52.268;20.968;2022-08-25T04:41:55;7.43;;;5.70;;
17199;SDS011;8716;52.268;20.968;2022-08-25T04:44:23;4.13;;;3.93;;
17199;SDS011;8716;52.268;20.968;2022-08-25T04:46:51;5.67;;;5.20;;
17199;SDS011;8716;52.268;20.968;2022-08-25T04:49:19;9.13;;;7.83;;
17199;SDS011;8716;52.268;20.968;2022-08-25T04:51:47;5.63;;;5.33;;
17199;SDS011;8716;52.268;20.968;2022-08-25T04:54:17;7.83;;;6.03;;
17199;SDS011;8716;52.268;20.968;2022-08-25T04:56:47;7.47;;;5.00;;
17199;SDS011;8716;52.268;20.968;2022-08-25T04:59:21;9.83;;;5.27;;
17199;SDS011;8716;52.268;20.968;2022-08-25T05:01:54;10.37;;;5.13;;
17199;SDS011;8716;52.268;20.968;2022-08-25T05:04:24;5.23;;;4.70;;
17199;SDS011;8716;52.268;20.968;2022-08-25T05:06:57;9.00;;;6.40;;
17199;SDS011;8716;52.268;20.968;2022-08-25T05:09:26;7.77;;;7.40;;
17199;SDS011;8716;52.268;20.968;2022-08-25T05:11:58;5.90;;;4.90;;
17199;SDS011;8716;52.268;20.968;2022-08-25T05:14:28;7.70;;;5.40;;
17199;SDS011;8716;52.268;20.968;2022-08-25T05:16:57;5.80;;;4.90;;
17199;SDS011;8716;52.268;20.968;2022-08-25T05:19:25;4.30;;;3.70;;
17199;SDS011;8716;52.268;20.968;2022-08-25T05:21:54;8.03;;;5.67;;
17199;SDS011;8716;52.268;20.968;2022-08-25T05:24:23;5.77;;;4.83;;
17199;SDS011;8716;52.268;20.968;2022-08-25T05:26:53;5.10;;;3.97;;
17199;SDS011;8716;52.268;20.968;2022-08-25T05:29:21;7.03;;;5.73;;
17199;SDS011;8716;52.268;20.968;2022-08-25T05:31:51;4.50;;;4.20;;
17199;SDS011;8716;52.268;20.968;2022-08-25T05:34:20;8.10;;;5.03;;
17199;SDS011;8716;52.268;20.968;2022-08-25T05:36:48;9.50;;;6.10;;
17199;SDS011;8716;52.268;20.968;2022-08-25T05:39:16;9.70;;;4.83;;
17199;SDS011;8716;52.268;20.968;2022-08-25T05:41:45;5.30;;;4.13;;
17199;SDS011;8716;52.268;20.968;2022-08-25T05:44:14;3.80;;;3.63;;
17199;SDS011;8716;52.268;20.968;2022-08-25T05:46:46;13.80;;;7.40;;
17199;SDS011;8716;52.268;20.968;2022-08-25T05:49:15;5.20;;;4.90;;
17199;SDS011;8716;52.268;20.968;2022-08-25T05:51:43;5.30;;;4.50;;
17199;SDS011;8716;52.268;20.968;2022-08-25T05:54:11;7.00;;;6.60;;
17199;SDS011;8716;52.268;20.968;2022-08-25T05:56:39;6.40;;;5.80;;
17199;SDS011;8716;52.268;20.968;2022-08-25T05:59:07;5.50;;;5.20;;
17199;SDS011;8716;52.268;20.968;2022-08-25T06:01:37;6.20;;;5.87;;
17199;SDS011;8716;52.268;20.968;2022-08-25T06:04:31;8.27;;;5.50;;
17199;SDS011;8716;52.268;20.968;2022-08-25T06:06:59;9.40;;;4.50;;
17199;SDS011;8716;52.268;20.968;2022-08-25T06:09:30;8.47;;;8.00;;
17199;SDS011;8716;52.268;20.968;2022-08-25T06:11:58;8.67;;;6.70;;
17199;SDS011;8716;52.268;20.968;2022-08-25T06:14:26;6.53;;;5.43;;
17199;SDS011;8716;52.268;20.968;2022-08-25T06:16:56;6.60;;;4.97;;
17199;SDS011;8716;52.268;20.968;2022-08-25T06:19:25;13.13;;;8.50;;
17199;SDS011;8716;52.268;20.968;2022-08-25T06:21:54;5.20;;;4.90;;
17199;SDS011;8716;52.268;20.968;2022-08-25T06:24:23;15.30;;;10.40;;
17199;SDS011;8716;52.268;20.968;2022-08-25T06:26:52;6.97;;;5.93;;
17199;SDS011;8716;52.268;20.968;2022-08-25T06:29:20;7.43;;;7.03;;
17199;SDS011;8716;52.268;20.968;2022-08-25T06:31:48;8.27;;;7.83;;
17199;SDS011;8716;52.268;20.968;2022-08-25T06:34:18;4.80;;;4.50;;
17199;SDS011;8716;52.268;20.968;2022-08-25T06:36:49;10.10;;;6.40;;
17199;SDS011;8716;52.268;20.968;2022-08-25T06:39:20;13.63;;;10.00;;
17199;SDS011;8716;52.268;20.968;2022-08-25T06:41:51;22.83;;;8.80;;
17199;SDS011;8716;52.268;20.968;2022-08-25T06:44:24;7.00;;;5.57;;
17199;SDS011;8716;52.268;20.968;2022-08-25T06:46:53;7.67;;;7.27;;
17199;SDS011;8716;52.268;20.968;2022-08-25T06:49:23;9.10;;;5.27;;
17199;SDS011;8716;52.268;20.968;2022-08-25T06:51:58;6.93;;;5.83;;
17199;SDS011;8716;52.268;20.968;2022-08-25T06:54:26;6.10;;;5.77;;
17199;SDS011;8716;52.268;20.968;2022-08-25T06:56:54;7.60;;;6.00;;
17199;SDS011;8716;52.268;20.968;2022-08-25T06:59:23;11.83;;;7.00;;
17199;SDS011;8716;52.268;20.968;2022-08-25T07:01:57;6.53;;;5.57;;
17199;SDS011;8716;52.268;20.968;2022-08-25T07:04:30;6.63;;;6.23;;
17199;SDS011;8716;52.268;20.968;2022-08-25T07:06:58;6.90;;;6.50;;
17199;SDS011;8716;52.268;20.968;2022-08-25T07:09:27;8.70;;;6.00;;
17199;SDS011;8716;52.268;20.968;2022-08-25T07:11:55;9.37;;;6.83;;
17199;SDS011;8716;52.268;20.968;2022-08-25T07:14:23;7.90;;;7.50;;
17199;SDS011;8716;52.268;20.968;2022-08-25T07:16:51;7.13;;;6.57;;
17199;SDS011;8716;52.268;20.968;2022-08-25T07:19:19;10.93;;;8.53;;
17199;SDS011;8716;52.268;20.968;2022-08-25T07:21:50;13.23;;;7.73;;
17199;SDS011;8716;52.268;20.968;2022-08-25T07:24:19;18.57;;;10.53;;
17199;SDS011;8716;52.268;20.968;2022-08-25T07:26:48;11.43;;;7.13;;
17199;SDS011;8716;52.268;20.968;2022-08-25T07:29:18;14.83;;;7.97;;
17199;SDS011;8716;52.268;20.968;2022-08-25T07:31:57;6.90;;;6.50;;
17199;SDS011;8716;52.268;20.968;2022-08-25T07:34:26;12.23;;;11.17;;
17199;SDS011;8716;52.268;20.968;2022-08-25T07:37:19;9.03;;;8.53;;
17199;SDS011;8716;52.268;20.968;2022-08-25T07:40:10;12.80;;;8.50;;
17199;SDS011;8716;52.268;20.968;2022-08-25T07:42:41;8.57;;;7.73;;
17199;SDS011;8716;52.268;20.968;2022-08-25T07:45:09;9.70;;;7.27;;
17199;SDS011;8716;52.268;20.968;2022-08-25T07:47:41;9.23;;;6.07;;
17199;SDS011;8716;52.268;20.968;2022-08-25T07:50:11;19.80;;;9.57;;
17199;SDS011;8716;52.268;20.968;2022-08-25T07:52:44;15.40;;;9.37;;
17199;SDS011;8716;52.268;20.968;2022-08-25T07:55:20;9.13;;;8.07;;
17199;SDS011;8716;52.268;20.968;2022-08-25T07:57:49;7.67;;;6.50;;
17199;SDS011;8716;52.268;20.968;2022-08-25T08:00:21;17.00;;;8.23;;
17199;SDS011;8716;52.268;20.968;2022-08-25T08:02:53;9.50;;;8.03;;
17199;SDS011;8716;52.268;20.968;2022-08-25T08:05:21;6.53;;;6.03;;
17199;SDS011;8716;52.268;20.968;2022-08-25T08:07:51;9.57;;;8.10;;
17199;SDS011;8716;52.268;20.968;2022-08-25T08:10:20;5.77;;;5.47;;
17199;SDS011;8716;52.268;20.968;2022-08-25T08:13:08;10.73;;;8.63;;
17199;SDS011;8716;52.268;20.968;2022-08-25T08:15:43;11.83;;;8.47;;
17199;SDS011;8716;52.268;20.968;2022-08-25T08:18:12;10.33;;;7.50;;
17199;SDS011;8716;52.268;20.968;2022-08-25T08:20:42;9.33;;;8.73;;
17199;SDS011;8716;52.268;20.968;2022-08-25T08:23:14;14.10;;;7.77;;
17199;SDS011;8716;52.268;20.968;2022-08-25T08:25:43;12.20;;;9.33;;
17199;SDS011;8716;52.268;20.968;2022-08-25T08:28:11;8.73;;;8.23;;
17199;SDS011;8716;52.268;20.968;2022-08-25T08:30:39;4.33;;;4.03;;
17199;SDS011;8716;52.268;20.968;2022-08-25T08:33:18;20.33;;;7.30;;
17199;SDS011;8716;52.268;20.968;2022-08-25T08:35:54;13.83;;;9.47;;
17199;SDS011;8716;52.268;20.968;2022-08-25T08:38:26;8.97;;;8.20;;
17199;SDS011;8716;52.268;20.968;2022-08-25T08:40:57;9.73;;;6.60;;
17199;SDS011;8716;52.268;20.968;2022-08-25T08:43:55;12.93;;;7.37;;
17199;SDS011;8716;52.268;20.968;2022-08-25T08:46:39;9.23;;;6.97;;
17199;SDS011;8716;52.268;20.968;2022-08-25T08:49:14;6.87;;;6.50;;
17199;SDS011;8716;52.268;20.968;2022-08-25T08:51:56;10.37;;;7.30;;
17199;SDS011;8716;52.268;20.968;2022-08-25T08:54:30;5.23;;;4.73;;
17199;SDS011;8716;52.268;20.968;2022-08-25T08:57:09;14.83;;;8.40;;
17199;SDS011;8716;52.268;20.968;2022-08-25T08:59:47;7.07;;;6.67;;
17199;SDS011;8716;52.268;20.968;2022-08-25T09:02:21;13.00;;;6.87;;
17199;SDS011;8716;52.268;20.968;2022-08-25T09:05:15;15.43;;;8.67;;
17199;SDS011;8716;52.268;20.968;2022-08-25T09:07:47;8.77;;;5.40;;
17199;SDS011;8716;52.268;20.968;2022-08-25T09:10:22;7.70;;;7.30;;
17199;SDS011;8716;52.268;20.968;2022-08-25T09:12:54;5.13;;;4.67;;
17199;SDS011;8716;52.268;20.968;2022-08-25T09:15:39;8.20;;;7.80;;
17199;SDS011;8716;52.268;20.968;2022-08-25T09:18:32;11.13;;;7.80;;
17199;SDS011;8716;52.268;20.968;2022-08-25T09:21:19;11.93;;;8.57;;
17199;SDS011;8716;52.268;20.968;2022-08-25T09:24:02;7.90;;;7.50;;
17199;SDS011;8716;52.268;20.968;2022-08-25T09:26:50;8.43;;;7.97;;
17199;SDS011;8716;52.268;20.968;2022-08-25T09:29:41;7.77;;;7.37;;
17199;SDS011;8716;52.268;20.968;2022-08-25T09:32:22;7.20;;;6.17;;
17199;SDS011;8716;52.268;20.968;2022-08-25T09:34:57;8.07;;;7.67;;
17199;SDS011;8716;52.268;20.968;2022-08-25T09:37:27;7.40;;;7.00;;
17199;SDS011;8716;52.268;20.968;2022-08-25T09:39:57;10.13;;;7.93;;
17199;SDS011;8716;52.268;20.968;2022-08-25T09:45:35;11.10;;;8.10;;
17199;SDS011;8716;52.268;20.968;2022-08-25T09:48:24;7.90;;;7.50;;
17199;SDS011;8716;52.268;20.968;2022-08-25T09:51:11;10.03;;;6.10;;
17199;SDS011;8716;52.268;20.968;2022-08-25T09:53:47;7.43;;;7.03;;
17199;SDS011;8716;52.268;20.968;2022-08-25T09:56:22;7.90;;;7.50;;
17199;SDS011;8716;52.268;20.968;2022-08-25T09:58:54;8.03;;;6.23;;
17199;SDS011;8716;52.268;20.968;2022-08-25T10:01:28;7.37;;;6.97;;
17199;SDS011;8716;52.268;20.968;2022-08-25T10:04:01;9.03;;;8.47;;
17199;SDS011;8716;52.268;20.968;2022-08-25T10:06:33;7.60;;;7.20;;
17199;SDS011;8716;52.268;20.968;2022-08-25T10:09:12;6.90;;;6.50;;
17199;SDS011;8716;52.268;20.968;2022-08-25T10:11:49;8.00;;;7.50;;
17199;SDS011;8716;52.268;20.968;2022-08-25T10:14:33;8.80;;;5.97;;
17199;SDS011;8716;52.268;20.968;2022-08-25T10:17:11;7.63;;;6.30;;
17199;SDS011;8716;52.268;20.968;2022-08-25T10:19:42;8.10;;;7.57;;
17199;SDS011;8716;52.268;20.968;2022-08-25T10:22:11;5.40;;;5.10;;
17199;SDS011;8716;52.268;20.968;2022-08-25T10:24:52;5.03;;;4.73;;
17199;SDS011;8716;52.268;20.968;2022-08-25T10:27:22;5.50;;;5.20;;
17199;SDS011;8716;52.268;20.968;2022-08-25T10:30:05;9.03;;;6.47;;
17199;SDS011;8716;52.268;20.968;2022-08-25T10:32:48;6.03;;;5.73;;
17199;SDS011;8716;52.268;20.968;2022-08-25T10:35:33;6.50;;;6.07;;
17199;SDS011;8716;52.268;20.968;2022-08-25T10:38:10;11.10;;;5.97;;
17199;SDS011;8716;52.268;20.968;2022-08-25T10:40:55;6.07;;;4.67;;
17199;SDS011;8716;52.268;20.968;2022-08-25T10:43:30;5.00;;;3.77;;
17199;SDS011;8716;52.268;20.968;2022-08-25T10:46:08;7.97;;;5.47;;
17199;SDS011;8716;52.268;20.968;2022-08-25T10:48:50;12.10;;;6.03;;
17199;SDS011;8716;52.268;20.968;2022-08-25T10:51:31;4.60;;;4.30;;
17199;SDS011;8716;52.268;20.968;2022-08-25T10:54:25;4.60;;;4.30;;
17199;SDS011;8716;52.268;20.968;2022-08-25T10:57:05;4.93;;;4.63;;
17199;SDS011;8716;52.268;20.968;2022-08-25T10:59:46;4.87;;;4.57;;
17199;SDS011;8716;52.268;20.968;2022-08-25T11:05:39;4.00;;;3.80;;
17199;SDS011;8716;52.268;20.968;2022-08-25T11:08:14;5.03;;;4.73;;
17199;SDS011;8716;52.268;20.968;2022-08-25T11:10:47;4.27;;;4.00;;
17199;SDS011;8716;52.268;20.968;2022-08-25T11:13:21;4.47;;;3.50;;
17199;SDS011;8716;52.268;20.968;2022-08-25T11:16:05;4.70;;;4.40;;
17199;SDS011;8716;52.268;20.968;2022-08-25T11:18:53;5.40;;;5.10;;
17199;SDS011;8716;52.268;20.968;2022-08-25T11:21:30;8.90;;;4.90;;
17199;SDS011;8716;52.268;20.968;2022-08-25T11:24:06;5.23;;;3.70;;
17199;SDS011;8716;52.268;20.968;2022-08-25T11:26:50;3.80;;;3.60;;
17199;SDS011;8716;52.268;20.968;2022-08-25T11:29:23;4.47;;;3.57;;
17199;SDS011;8716;52.268;20.968;2022-08-25T11:31:57;3.27;;;2.63;;
17199;SDS011;8716;52.268;20.968;2022-08-25T11:34:29;3.20;;;3.00;;
17199;SDS011;8716;52.268;20.968;2022-08-25T11:37:02;4.13;;;3.90;;
17199;SDS011;8716;52.268;20.968;2022-08-25T11:39:46;5.17;;;4.87;;
17199;SDS011;8716;52.268;20.968;2022-08-25T11:42:49;4.77;;;4.47;;
17199;SDS011;8716;52.268;20.968;2022-08-25T11:45:34;5.03;;;4.73;;
17199;SDS011;8716;52.268;20.968;2022-08-25T11:51:10;5.40;;;5.10;;
17199;SDS011;8716;52.268;20.968;2022-08-25T11:54:06;5.97;;;5.67;;
17199;SDS011;8716;52.268;20.968;2022-08-25T11:56:49;6.40;;;6.00;;
17199;SDS011;8716;52.268;20.968;2022-08-25T12:02:29;7.50;;;4.80;;
17199;SDS011;8716;52.268;20.968;2022-08-25T12:05:01;4.20;;;3.90;;
17199;SDS011;8716;52.268;20.968;2022-08-25T12:07:56;4.40;;;4.10;;
17199;SDS011;8716;52.268;20.968;2022-08-25T12:10:56;5.07;;;4.67;;
17199;SDS011;8716;52.268;20.968;2022-08-25T12:13:43;3.87;;;3.67;;
17199;SDS011;8716;52.268;20.968;2022-08-25T12:16:36;4.80;;;4.50;;
17199;SDS011;8716;52.268;20.968;2022-08-25T12:19:25;3.97;;;3.80;;
17199;SDS011;8716;52.268;20.968;2022-08-25T12:21:57;4.60;;;4.30;;
17199;SDS011;8716;52.268;20.968;2022-08-25T12:25:04;4.10;;;3.43;;
17199;SDS011;8716;52.268;20.968;2022-08-25T12:27:42;4.00;;;3.80;;
17199;SDS011;8716;52.268;20.968;2022-08-25T12:30:20;5.97;;;5.23;;
17199;SDS011;8716;52.268;20.968;2022-08-25T12:33:01;3.47;;;3.27;;
17199;SDS011;8716;52.268;20.968;2022-08-25T12:35:36;5.13;;;4.80;;
17199;SDS011;8716;52.268;20.968;2022-08-25T12:38:08;5.77;;;5.33;;
17199;SDS011;8716;52.268;20.968;2022-08-25T12:40:52;4.70;;;4.27;;
17199;SDS011;8716;52.268;20.968;2022-08-25T12:43:27;4.50;;;4.20;;
17199;SDS011;8716;52.268;20.968;2022-08-25T12:49:01;3.10;;;2.90;;
17199;SDS011;8716;52.268;20.968;2022-08-25T12:54:27;3.13;;;2.93;;
17199;SDS011;8716;52.268;20.968;2022-08-25T12:57:10;5.33;;;5.03;;
17199;SDS011;8716;52.268;20.968;2022-08-25T12:59:57;3.23;;;3.03;;
17199;SDS011;8716;52.268;20.968;2022-08-25T13:02:50;4.53;;;4.23;;
17199;SDS011;8716;52.268;20.968;2022-08-25T13:06:01;5.23;;;4.60;;
17199;SDS011;8716;52.268;20.968;2022-08-25T13:12:29;4.17;;;3.93;;
17199;SDS011;8716;52.268;20.968;2022-08-25T13:15:01;4.50;;;4.20;;
17199;SDS011;8716;52.268;20.968;2022-08-25T13:17:33;8.80;;;3.87;;
17199;SDS011;8716;52.268;20.968;2022-08-25T13:20:15;3.70;;;3.50;;
17199;SDS011;8716;52.268;20.968;2022-08-25T13:22:46;3.90;;;3.70;;
17199;SDS011;8716;52.268;20.968;2022-08-25T13:25:26;5.97;;;5.67;;
17199;SDS011;8716;52.268;20.968;2022-08-25T13:27:59;4.23;;;3.97;;
17199;SDS011;8716;52.268;20.968;2022-08-25T13:30:33;8.10;;;4.60;;
17199;SDS011;8716;52.268;20.968;2022-08-25T13:33:14;4.70;;;4.43;;
17199;SDS011;8716;52.268;20.968;2022-08-25T13:35:47;4.07;;;3.87;;
17199;SDS011;8716;52.268;20.968;2022-08-25T13:38:17;5.63;;;4.03;;
17199;SDS011;8716;52.268;20.968;2022-08-25T13:40:45;4.47;;;4.10;;
17199;SDS011;8716;52.268;20.968;2022-08-25T13:43:14;6.60;;;5.77;;
17199;SDS011;8716;52.268;20.968;2022-08-25T13:45:49;6.83;;;4.93;;
17199;SDS011;8716;52.268;20.968;2022-08-25T13:48:30;4.43;;;3.80;;
17199;SDS011;8716;52.268;20.968;2022-08-25T13:51:04;5.60;;;4.47;;
17199;SDS011;8716;52.268;20.968;2022-08-25T13:53:36;4.60;;;4.33;;
17199;SDS011;8716;52.268;20.968;2022-08-25T13:56:05;4.03;;;3.83;;
17199;SDS011;8716;52.268;20.968;2022-08-25T13:58:35;4.47;;;4.17;;
17199;SDS011;8716;52.268;20.968;2022-08-25T14:01:14;4.90;;;3.93;;
17199;SDS011;8716;52.268;20.968;2022-08-25T14:04:26;4.30;;;2.80;;
17199;SDS011;8716;52.268;20.968;2022-08-25T14:07:05;4.07;;;3.30;;
17199;SDS011;8716;52.268;20.968;2022-08-25T14:09:39;4.73;;;4.43;;
17199;SDS011;8716;52.268;20.968;2022-08-25T14:12:25;6.97;;;4.73;;
17199;SDS011;8716;52.268;20.968;2022-08-25T14:15:25;3.13;;;2.93;;
17199;SDS011;8716;52.268;20.968;2022-08-25T14:18:01;3.27;;;3.10;;
17199;SDS011;8716;52.268;20.968;2022-08-25T14:20:32;4.33;;;4.03;;
17199;SDS011;8716;52.268;20.968;2022-08-25T14:23:03;5.37;;;4.80;;
17199;SDS011;8716;52.268;20.968;2022-08-25T14:25:35;3.27;;;3.07;;
17199;SDS011;8716;52.268;20.968;2022-08-25T14:28:09;5.27;;;3.80;;
17199;SDS011;8716;52.268;20.968;2022-08-25T14:30:40;4.60;;;4.30;;
17199;SDS011;8716;52.268;20.968;2022-08-25T14:33:13;9.00;;;4.60;;
17199;SDS011;8716;52.268;20.968;2022-08-25T14:35:46;3.83;;;3.67;;
17199;SDS011;8716;52.268;20.968;2022-08-25T14:38:16;4.03;;;3.80;;
17199;SDS011;8716;52.268;20.968;2022-08-25T14:40:46;4.30;;;3.77;;
17199;SDS011;8716;52.268;20.968;2022-08-25T14:43:15;4.00;;;3.80;;
17199;SDS011;8716;52.268;20.968;2022-08-25T14:45:50;3.70;;;3.50;;
17199;SDS011;8716;52.268;20.968;2022-08-25T14:48:22;3.40;;;3.20;;
17199;SDS011;8716;52.268;20.968;2022-08-25T14:50:53;3.90;;;3.70;;
17199;SDS011;8716;52.268;20.968;2022-08-25T14:53:23;3.53;;;3.33;;
17199;SDS011;8716;52.268;20.968;2022-08-25T14:55:51;5.67;;;5.20;;
17199;SDS011;8716;52.268;20.968;2022-08-25T14:58:24;6.37;;;4.80;;
17199;SDS011;8716;52.268;20.968;2022-08-25T15:00:59;4.70;;;4.40;;
17199;SDS011;8716;52.268;20.968;2022-08-25T15:03:34;3.17;;;2.97;;
17199;SDS011;8716;52.268;20.968;2022-08-25T15:06:04;3.33;;;3.20;;
17199;SDS011;8716;52.268;20.968;2022-08-25T15:08:36;19.20;;;5.80;;
17199;SDS011;8716;52.268;20.968;2022-08-25T15:11:25;4.60;;;4.30;;
17199;SDS011;8716;52.268;20.968;2022-08-25T15:13:54;3.93;;;3.73;;
17199;SDS011;8716;52.268;20.968;2022-08-25T15:16:23;5.93;;;5.63;;
17199;SDS011;8716;52.268;20.968;2022-08-25T15:19:02;5.43;;;4.97;;
17199;SDS011;8716;52.268;20.968;2022-08-25T15:21:32;3.90;;;3.40;;
17199;SDS011;8716;52.268;20.968;2022-08-25T15:24:02;5.73;;;5.43;;
17199;SDS011;8716;52.268;20.968;2022-08-25T15:26:33;3.90;;;3.70;;
17199;SDS011;8716;52.268;20.968;2022-08-25T15:29:05;5.23;;;4.93;;
17199;SDS011;8716;52.268;20.968;2022-08-25T15:31:34;4.70;;;4.00;;
17199;SDS011;8716;52.268;20.968;2022-08-25T15:34:06;2.93;;;2.73;;
17199;SDS011;8716;52.268;20.968;2022-08-25T15:36:37;5.00;;;4.40;;
17199;SDS011;8716;52.268;20.968;2022-08-25T15:39:07;5.10;;;4.80;;
17199;SDS011;8716;52.268;20.968;2022-08-25T15:41:36;4.83;;;4.50;;
17199;SDS011;8716;52.268;20.968;2022-08-25T15:44:08;4.37;;;4.07;;
17199;SDS011;8716;52.268;20.968;2022-08-25T15:46:38;5.90;;;4.60;;